Olivebridge, NY

11:52 PM EST on December 17, 2014 (GMT -0500)
The Vly | Change Station
CLOSE
Current Station
Personal Weather Station
Location: Stone Ridge, NY
Elevation: 880 ft
Nearby Weather Stations

Elev 880 ft 41.89 °N, 74.21 °W | Updated 9 seconds ago

Overcast
Overcast
36.6 °F
Feels Like 37 °F
N
0.0
Wind Variable Wind from NW
Gusts 3.0 mph

Today
High -- | Low -- °F
--% Chance of Precip.
Yesterday
High -- | Low -- °F
Precip. -- in
7:19 AM 4:27 PM
Waning Crescent, 17% visible
Pressure 29.88 in
Visibility 10.0 miles
Clouds Overcast 3400 ft
Windchill 37 °F
Dew Point 30 °F
Humidity 78%
Rainfall 0.07 in
Snow Depth Not available.
UV 0 out of 12
Pollen .10 out of 12
Air Quality Not available.
Flu Activity Not available.
METAR KMGJ 180354Z AUTO 29012G17KT 10SM OVC034 04/M02 A2987 RMK AO2 SLP116 T00441017 TSNO

More Conditions Fewer Conditions

Pressure 29.88 in
Visibility 10.0 miles
Clouds Overcast 3400 ft
Windchill 37 °F
Dew Point 30 °F
Humidity 78%
Rainfall 0.07 in
Snow Depth Not available.
UV 0 out of 12
Pollen .10 out of 12
Air Quality Not available.
Flu Activity Not available.
METAR KMGJ 180354Z AUTO 29012G17KT 10SM OVC034 04/M02 A2987 RMK AO2 SLP116 T00441017 TSNO

More Conditions Fewer Conditions

10-Day Weather Forecast

Almanac

Astronomy

Dec. 17, 2014 Rise Set
Actual Time
Civil Twilight
Nautical Twilight
Astronomical Twilight
Moon
Length of Visible Light
Length of Day
Tomorrow will be .
, % of the Moon is Illuminated

Today's Extremes

State Highs State Lows

Community

WunderPhotos

Upload Photos

1,778,883 photos uploaded!

WunderBlogs® & News

Nearby

Air Quality

  Air Quality AQ Index Pollutant
Not available.

Snow Depth

Station Depth Elevation

Earthquake Activity

City Distance Mag. Time & Date
Minimum magnitude displayed is 2.5.

Coastal Water Temperatures

Place Temperature

Nearby Weather Stations